Terminal Aerodrome Forecast
Issued by NWS

Home | Current Version | Previous Version | Text Only | Print | Product List | Glossary On
Versions: 1 2 3 4 5 6 7 8 9 10 11 12 13 14 15 16 17 18 19 20 21 22 23 24 25
312
FTUS44 KCRP 261730
TAFLRD
TAF
KLRD 261730Z 2618/2718 15015G20KT P6SM FEW035 SCT150
     FM262300 13013KT P6SM VCTS SCT045CB OVC150
     FM270600 16010KT P6SM BKN015=

USA.gov is the U.S. government's official web portal to all federal, state and local government web resources and services.